Time;durP1;ratioP1;P1;durP2;ratioP2;P2;SDS_P1;SDS_P2;PMS_P1;PMS_P2;Temp;Humidity;BMP_temperature;BMP_pressure;BME280_temperature;BME280_humidity;BME280_pressure;Samples;Min_cycle;Max_cycle;Signal;HPM_P1;HPM_P2
2023/01/29 00:01:40;;;;;;;20.33;9.75;;;;;;;5.22;45.12;102880.41;7395839;19;20006;-60
2023/01/29 00:04:06;;;;;;;18.08;10.15;;;;;;;5.35;44.83;102880.84;7392424;19;20401;-60
2023/01/29 00:06:32;;;;;;;18.23;10.05;;;;;;;5.37;44.75;102881.44;7394876;19;19998;-61
2023/01/29 00:08:58;;;;;;;23.25;11.20;;;;;;;5.37;44.87;102883.28;7396209;19;20003;-60
2023/01/29 00:11:24;;;;;;;18.98;9.48;;;;;;;5.40;44.96;102881.97;7396756;19;20018;-61
2023/01/29 00:13:51;;;;;;;18.48;10.18;;;;;;;5.31;45.02;102878.88;7392239;19;19994;-60
2023/01/29 00:16:17;;;;;;;17.20;9.98;;;;;;;5.32;44.95;102869.69;7397182;19;20026;-59
2023/01/29 00:18:43;;;;;;;20.77;9.82;;;;;;;5.36;45.06;102873.56;7395674;19;20103;-60
2023/01/29 00:21:14;;;;;;;18.23;10.00;;;;;;;5.31;44.97;102871.56;7394695;19;20439;-59
2023/01/29 00:23:41;;;;;;;16.83;8.70;;;;;;;5.27;45.00;102875.03;7394863;19;20002;-60
2023/01/29 00:26:10;;;;;;;18.70;9.75;;;;;;;5.31;44.88;102859.94;7396428;19;20003;-61
2023/01/29 00:28:36;;;;;;;18.75;10.15;;;;;;;5.38;44.91;102849.72;7392190;19;20013;-60
2023/01/29 00:31:06;;;;;;;15.60;9.02;;;;;;;5.45;44.69;102838.69;7394073;19;20027;-60
2023/01/29 00:33:32;;;;;;;16.98;9.45;;;;;;;5.46;44.54;102835.72;7393559;19;20031;-59
2023/01/29 00:36:02;;;;;;;17.42;9.82;;;;;;;5.47;44.66;102828.41;7393432;19;20006;-60
2023/01/29 00:38:28;;;;;;;16.95;9.38;;;;;;;5.31;44.68;102822.03;7393281;19;20029;-61
2023/01/29 00:46:22;;;;;;;18.30;9.85;;;;;;;5.26;44.92;102811.94;7393224;19;19918;-60
2023/01/29 00:48:48;;;;;;;18.77;9.98;;;;;;;5.22;44.95;102821.63;7395436;19;20025;-60
2023/01/29 00:51:14;;;;;;;17.75;9.90;;;;;;;5.14;45.08;102822.94;7395059;19;20006;-60
2023/01/29 00:53:40;;;;;;;18.50;9.32;;;;;;;5.28;44.78;102830.66;7391154;19;20001;-60
2023/01/29 00:56:09;;;;;;;16.80;9.57;;;;;;;5.36;44.68;102825.63;7393205;19;19994;-60
2023/01/29 00:58:35;;;;;;;16.63;9.02;;;;;;;5.41;44.55;102835.69;7394677;19;19998;-62
2023/01/29 01:01:01;;;;;;;17.65;9.32;;;;;;;5.41;44.50;102840.25;7395040;19;20006;-59
2023/01/29 01:03:28;;;;;;;16.73;9.73;;;;;;;5.39;44.47;102840.56;7394078;19;20014;-59
2023/01/29 01:06:09;;;;;;;19.55;10.48;;;;;;;5.44;44.58;102839.75;7395284;19;20002;-59
2023/01/29 01:11:21;;;;;;;20.50;10.40;;;;;;;5.28;44.78;102852.31;7394501;19;19995;-59
2023/01/29 01:13:47;;;;;;;19.63;10.18;;;;;;;5.25;44.91;102852.81;7393237;19;19995;-60
2023/01/29 01:16:15;;;;;;;19.98;10.10;;;;;;;5.36;44.79;102857.31;7392303;19;19998;-59
2023/01/29 01:18:42;;;;;;;18.50;9.95;;;;;;;5.41;44.35;102860.06;7394100;19;20085;-59
2023/01/29 01:21:08;;;;;;;17.13;9.98;;;;;;;5.39;44.57;102864.94;7394542;19;20023;-59
2023/01/29 01:23:34;;;;;;;17.30;9.45;;;;;;;5.38;44.54;102855.16;7388246;19;19995;-61
2023/01/29 01:26:00;;;;;;;17.48;9.50;;;;;;;5.25;44.71;102859.03;7392517;19;19998;-59
2023/01/29 01:28:26;;;;;;;17.98;9.95;;;;;;;5.17;44.94;102863.03;7390215;19;19999;-58
2023/01/29 01:30:52;;;;;;;19.25;10.60;;;;;;;5.26;44.63;102859.88;7392140;19;19998;-57
2023/01/29 01:33:19;;;;;;;19.83;10.30;;;;;;;5.29;44.89;102853.94;7392221;19;20014;-57
2023/01/29 01:35:44;;;;;;;17.83;9.32;;;;;;;5.23;44.83;102850.34;7394656;19;20007;-59
2023/01/29 01:38:10;;;;;;;18.40;10.15;;;;;;;5.23;44.95;102852.25;7391431;19;20404;-57
2023/01/29 01:40:42;;;;;;;19.45;10.05;;;;;;;5.20;45.17;102838.13;7394543;19;20006;-57
2023/01/29 01:43:09;;;;;;;19.95;9.88;;;;;;;5.15;45.25;102834.56;7392304;19;19999;-59
2023/01/29 01:45:35;;;;;;;19.40;10.63;;;;;;;5.25;45.24;102839.28;7394505;19;20070;-60
2023/01/29 01:48:11;;;;;;;20.30;10.00;;;;;;;5.26;45.15;102841.72;7392346;19;20031;-60
2023/01/29 01:50:41;;;;;;;19.33;10.65;;;;;;;5.23;45.08;102834.13;7393820;19;20003;-59
2023/01/29 01:53:13;;;;;;;21.17;10.52;;;;;;;5.32;44.91;102840.75;7392859;19;19999;-59
2023/01/29 01:55:56;;;;;;;17.20;9.70;;;;;;;5.15;45.31;102843.50;7392841;19;20006;-59
2023/01/29 01:58:30;;;;;;;21.35;10.57;;;;;;;5.07;45.43;102841.25;7390503;19;20001;-59
2023/01/29 02:00:57;;;;;;;19.98;10.25;;;;;;;5.17;45.27;102838.66;7392953;19;20205;-59
2023/01/29 02:11:54;;;;;;;20.00;10.32;;;;;;;5.15;45.22;102832.66;7392508;19;20352;-60
2023/01/29 02:14:21;;;;;;;21.02;9.80;;;;;;;5.20;45.07;102826.50;7393007;19;20036;-58
2023/01/29 02:16:46;;;;;;;19.48;10.27;;;;;;;5.24;44.83;102837.63;7390496;19;19998;-58
2023/01/29 02:19:31;;;;;;;19.15;10.52;;;;;;;5.36;44.64;102844.56;7392175;19;20009;-58
2023/01/29 02:22:15;;;;;;;18.30;11.02;;;;;;;5.28;44.75;102841.47;7391609;19;20115;-58
2023/01/29 02:25:08;;;;;;;20.65;10.80;;;;;;;5.31;44.75;102843.69;7392875;19;19999;-58
2023/01/29 02:28:05;;;;;;;20.55;10.90;;;;;;;5.20;44.85;102842.75;7390863;19;20393;-59
2023/01/29 02:30:44;;;;;;;17.42;9.80;;;;;;;5.23;44.91;102841.44;7392058;19;20010;-58
2023/01/29 02:33:37;;;;;;;18.25;10.35;;;;;;;5.19;44.86;102836.53;7390664;19;20006;-58
2023/01/29 02:36:13;;;;;;;19.45;10.63;;;;;;;5.32;44.63;102840.75;7391892;19;20010;-58
2023/01/29 02:39:07;;;;;;;21.17;10.95;;;;;;;5.34;44.60;102837.75;7389428;19;20018;-59
2023/01/29 02:41:59;;;;;;;17.85;10.30;;;;;;;5.20;44.92;102837.31;7391710;19;20006;-59
2023/01/29 02:44:40;;;;;;;19.67;10.90;;;;;;;5.22;44.62;102834.38;7390263;19;20002;-59
2023/01/29 02:47:34;;;;;;;20.52;11.05;;;;;;;5.26;44.68;102833.59;7390230;19;19998;-59
2023/01/29 02:50:08;;;;;;;19.58;11.07;;;;;;;5.29;44.62;102816.03;7390231;19;20010;-59
2023/01/29 02:52:49;;;;;;;19.73;11.25;;;;;;;5.33;44.51;102809.88;7389348;19;20002;-59
2023/01/29 02:55:22;;;;;;;20.48;11.13;;;;;;;5.32;44.56;102805.56;7391613;19;20010;-58
2023/01/29 02:57:54;;;;;;;21.90;11.38;;;;;;;5.31;44.49;102794.94;7390516;19;20009;-59
2023/01/29 03:00:25;;;;;;;21.52;11.10;;;;;;;5.15;44.77;102781.22;7391264;19;20008;-59
2023/01/29 03:02:58;;;;;;;20.40;11.55;;;;;;;5.18;44.69;102780.72;7388207;19;20002;-58
2023/01/29 03:05:42;;;;;;;19.57;10.87;;;;;;;5.22;44.67;102775.63;7390127;19;20339;-59
2023/01/29 03:08:14;;;;;;;20.65;10.75;;;;;;;5.23;44.76;102773.75;7387556;19;20022;-58
2023/01/29 03:10:54;;;;;;;20.23;11.13;;;;;;;5.10;45.01;102767.66;7391108;19;19999;-59
2023/01/29 03:13:41;;;;;;;19.45;11.00;;;;;;;5.18;44.72;102763.69;7390126;19;19999;-59
2023/01/29 03:16:23;;;;;;;21.38;12.20;;;;;;;4.99;45.18;102757.81;7390903;19;20344;-59
2023/01/29 03:18:55;;;;;;;21.83;11.68;;;;;;;5.03;45.16;102756.22;7388694;19;19999;-59
2023/01/29 03:21:58;;;;;;;18.50;10.98;;;;;;;4.97;45.16;102746.41;7391043;19;19994;-59
2023/01/29 03:33:14;;;;;;;21.73;11.80;;;;;;;5.09;44.94;102732.72;7388390;19;20021;-60
2023/01/29 03:36:12;;;;;;;21.27;11.75;;;;;;;5.09;45.05;102722.72;7390492;19;20015;-59
2023/01/29 03:38:38;;;;;;;22.25;11.65;;;;;;;5.02;45.14;102722.09;7390898;19;20006;-59
2023/01/29 03:41:10;;;;;;;24.90;13.07;;;;;;;5.14;44.68;102717.34;7390689;19;19998;-59
2023/01/29 03:43:48;;;;;;;23.17;12.45;;;;;;;5.12;44.60;102716.81;7388485;19;19995;-60
2023/01/29 03:46:30;;;;;;;22.70;12.65;;;;;;;4.99;45.00;102709.09;7390831;19;20348;-59
2023/01/29 03:49:00;;;;;;;24.60;13.38;;;;;;;5.02;45.10;102712.09;7389300;19;20006;-60
2023/01/29 03:51:40;;;;;;;23.02;12.65;;;;;;;4.97;45.03;102706.66;7389849;19;20007;-60
2023/01/29 03:54:18;;;;;;;23.98;13.50;;;;;;;5.00;45.22;102718.84;7388584;19;19991;-60
2023/01/29 03:56:56;;;;;;;22.13;12.65;;;;;;;5.03;45.21;102712.91;7389819;19;20352;-59
2023/01/29 03:59:39;;;;;;;24.27;13.70;;;;;;;5.05;44.86;102705.34;7389946;19;20276;-60
2023/01/29 04:02:26;;;;;;;22.27;13.48;;;;;;;5.02;44.86;102720.22;7389741;19;20095;-59
2023/01/29 04:04:57;;;;;;;23.83;13.20;;;;;;;5.08;44.79;102707.53;7389784;19;20002;-59
2023/01/29 04:07:25;;;;;;;27.38;14.30;;;;;;;4.99;45.11;102706.38;7388016;19;19995;-59
2023/01/29 04:10:01;;;;;;;23.05;13.38;;;;;;;4.94;45.14;102703.59;7390233;19;20062;-60
2023/01/29 04:12:34;;;;;;;29.02;13.82;;;;;;;4.90;45.32;102702.50;7389041;19;19995;-59
2023/01/29 04:15:01;;;;;;;22.65;13.20;;;;;;;4.99;44.97;102703.69;7389483;19;19998;-60
2023/01/29 04:17:33;;;;;;;23.70;14.10;;;;;;;4.89;45.32;102706.28;7395036;19;20003;-59
2023/01/29 04:20:02;;;;;;;23.45;13.35;;;;;;;5.00;44.95;102708.00;7395952;19;20083;-59
2023/01/29 04:22:34;;;;;;;25.02;14.35;;;;;;;4.92;45.15;102703.06;7396163;19;20002;-59
2023/01/29 04:25:08;;;;;;;24.80;13.45;;;;;;;4.82;45.38;102701.91;7396609;19;20005;-59
2023/01/29 04:28:01;;;;;;;28.33;15.18;;;;;;;4.82;45.65;102701.91;7395083;19;20485;-59
2023/01/29 04:30:51;;;;;;;25.65;14.38;;;;;;;4.78;45.44;102699.94;7396608;19;20070;-59
2023/01/29 04:33:42;;;;;;;25.20;14.25;;;;;;;4.80;45.45;102704.03;7394389;19;20006;-59
2023/01/29 04:36:43;;;;;;;26.27;14.70;;;;;;;4.69;45.73;102696.91;7395697;19;20038;-59
2023/01/29 04:39:17;;;;;;;25.85;15.00;;;;;;;4.78;45.50;102699.94;7391262;19;20027;-60
2023/01/29 04:42:12;;;;;;;25.33;14.70;;;;;;;4.86;45.38;102696.78;7395138;19;20005;-59
2023/01/29 04:44:41;;;;;;;26.83;14.70;;;;;;;4.81;45.63;102694.03;7394804;19;20392;-59
2023/01/29 04:47:09;;;;;;;24.73;14.43;;;;;;;4.86;45.43;102696.78;7394021;19;20002;-59
2023/01/29 04:49:49;;;;;;;25.38;14.65;;;;;;;4.81;45.66;102710.28;7395623;19;20006;-59
2023/01/29 04:52:19;;;;;;;26.10;14.52;;;;;;;4.85;45.44;102699.75;7395203;19;20007;-59
2023/01/29 04:55:06;;;;;;;27.10;14.68;;;;;;;4.79;45.57;102694.28;7395483;19;20015;-59
2023/01/29 04:57:40;;;;;;;24.98;14.10;;;;;;;4.93;45.36;102704.69;7395745;19;19995;-59
2023/01/29 05:00:31;;;;;;;25.67;14.88;;;;;;;4.96;45.51;102706.91;7395695;19;20007;-59
2023/01/29 05:02:59;;;;;;;28.25;15.20;;;;;;;4.94;45.31;102709.03;7392173;19;20104;-59
2023/01/29 05:05:32;;;;;;;26.30;14.55;;;;;;;4.93;45.49;102720.94;7395712;19;20013;-59
2023/01/29 05:07:59;;;;;;;26.33;15.00;;;;;;;4.94;45.39;102720.69;7392538;19;20025;-59
2023/01/29 05:10:25;;;;;;;27.58;15.95;;;;;;;4.99;45.40;102711.81;7394647;19;20585;-59
2023/01/29 05:12:59;;;;;;;27.05;15.63;;;;;;;5.02;45.38;102712.09;7393776;19;20007;-59
2023/01/29 05:15:32;;;;;;;27.98;16.02;;;;;;;5.02;45.28;102706.69;7393925;19;20001;-59
2023/01/29 05:18:01;;;;;;;25.27;14.68;;;;;;;5.09;45.35;102702.94;7394152;19;20062;-60
2023/01/29 05:20:33;;;;;;;25.42;15.05;;;;;;;4.96;45.59;102693.38;7395867;19;20332;-61
2023/01/29 05:22:58;;;;;;;25.80;14.90;;;;;;;5.03;45.61;102685.84;7393225;19;20436;-61
2023/01/29 05:25:27;;;;;;;25.90;15.23;;;;;;;5.13;45.53;102691.34;7394809;19;20089;-60
2023/01/29 05:28:06;;;;;;;25.58;15.75;;;;;;;5.06;45.59;102706.19;7391055;19;20011;-60
2023/01/29 05:30:33;;;;;;;24.75;14.95;;;;;;;5.16;45.40;102690.84;7394565;19;20003;-60
2023/01/29 05:32:59;;;;;;;27.30;15.15;;;;;;;5.17;45.33;102692.47;7388545;19;20104;-74
2023/01/29 05:35:27;;;;;;;27.08;15.35;;;;;;;5.19;45.38;102695.75;7398100;19;20610;-74
2023/01/29 05:37:55;;;;;;;27.23;15.48;;;;;;;5.19;45.53;102689.50;7393170;19;20023;-74
2023/01/29 05:40:20;;;;;;;27.27;15.27;;;;;;;5.19;45.59;102698.44;7394311;19;19991;-71
2023/01/29 05:42:46;;;;;;;26.35;15.55;;;;;;;5.14;45.82;102698.41;7392684;19;20490;-72
2023/01/29 05:45:12;;;;;;;27.92;16.02;;;;;;;5.23;45.79;102695.22;7392447;19;20361;-72
2023/01/29 05:47:38;;;;;;;26.77;15.70;;;;;;;5.22;45.96;102690.88;7391512;19;19999;-73
2023/01/29 05:50:05;;;;;;;25.38;16.30;;;;;;;5.33;45.94;102679.91;7393693;19;19998;-74
2023/01/29 05:52:31;;;;;;;30.27;16.80;;;;;;;5.19;46.67;102673.28;7393552;19;20011;-78
2023/01/29 05:54:56;;;;;;;29.10;16.42;;;;;;;5.32;46.54;102672.88;7395165;19;20522;-78
2023/01/29 05:57:22;;;;;;;29.38;16.98;;;;;;;5.26;46.97;102681.97;7394739;19;20029;-77
2023/01/29 05:59:48;;;;;;;27.00;16.60;;;;;;;5.26;47.10;102679.28;7395238;19;19990;-77
2023/01/29 06:02:14;;;;;;;29.80;16.63;;;;;;;5.19;47.39;102670.56;7395360;19;20333;-77
2023/01/29 06:04:39;;;;;;;28.33;17.08;;;;;;;5.22;47.58;102667.31;7393385;19;19994;-76
2023/01/29 06:07:05;;;;;;;29.27;16.35;;;;;;;5.31;47.72;102671.19;7391801;19;19998;-76
2023/01/29 06:09:31;;;;;;;27.88;16.83;;;;;;;5.40;47.52;102674.25;7391249;19;19999;-75
2023/01/29 06:11:57;;;;;;;29.42;16.65;;;;;;;5.31;47.80;102679.31;7392904;19;20352;-75
2023/01/29 06:14:22;;;;;;;30.20;17.45;;;;;;;5.40;47.67;102674.25;7391232;19;20003;-74
2023/01/29 06:16:48;;;;;;;31.20;17.08;;;;;;;5.45;47.49;102674.28;7392185;19;19995;-74
2023/01/29 06:19:14;;;;;;;29.25;16.65;;;;;;;5.50;47.52;102668.91;7391782;19;20011;-74
2023/01/29 06:21:40;;;;;;;28.08;17.05;;;;;;;5.48;47.45;102662.94;7391854;19;20058;-73
2023/01/29 06:24:06;;;;;;;30.15;17.55;;;;;;;5.49;47.56;102655.63;7391074;19;20002;-74
2023/01/29 06:26:32;;;;;;;28.98;17.63;;;;;;;5.44;47.76;102663.72;7392495;19;19999;-74
2023/01/29 06:28:58;;;;;;;30.73;17.52;;;;;;;5.40;47.72;102673.44;7391879;19;20083;-73
2023/01/29 06:31:24;;;;;;;30.00;18.23;;;;;;;5.41;47.81;102683.19;7393883;19;19998;-74
2023/01/29 06:33:49;;;;;;;33.75;18.88;;;;;;;5.45;47.73;102677.00;7393408;19;20357;-73
2023/01/29 06:36:15;;;;;;;30.95;18.42;;;;;;;5.52;47.80;102666.78;7396593;19;20005;-73
2023/01/29 06:38:41;;;;;;;30.35;17.77;;;;;;;5.55;47.45;102652.69;7393291;19;20010;-74
2023/01/29 06:41:12;;;;;;;33.03;17.83;;;;;;;5.61;47.44;102652.72;7396287;19;20009;-73
2023/01/29 06:43:38;;;;;;;31.73;18.50;;;;;;;5.48;47.73;102643.97;7393211;19;19999;-73
2023/01/29 06:46:07;;;;;;;30.75;18.27;;;;;;;5.41;47.91;102656.94;7390549;19;20002;-73
2023/01/29 06:48:33;;;;;;;31.15;18.65;;;;;;;5.50;47.79;102647.22;7389444;19;20006;-67
2023/01/29 06:51:04;;;;;;;30.08;18.05;;;;;;;5.54;47.44;102650.22;7390435;19;20033;-67
2023/01/29 06:53:30;;;;;;;32.97;18.40;;;;;;;5.59;47.47;102644.84;7390460;19;19999;-68
2023/01/29 06:55:56;;;;;;;30.17;18.67;;;;;;;5.51;47.67;102642.66;7391430;19;19994;-68
2023/01/29 06:58:21;;;;;;;30.20;18.60;;;;;;;5.34;48.00;102646.34;7390549;19;20486;-68
2023/01/29 07:00:47;;;;;;;32.65;18.63;;;;;;;5.33;48.32;102638.47;7391520;19;20039;-70
2023/01/29 07:03:13;;;;;;;30.60;18.05;;;;;;;5.33;48.32;102641.19;7390464;19;20456;-72
2023/01/29 07:05:39;;;;;;;28.98;18.25;;;;;;;5.38;48.29;102649.34;7391764;19;20021;-72
2023/01/29 07:08:05;;;;;;;33.92;20.20;;;;;;;5.41;48.07;102640.69;7389690;19;20010;-74
2023/01/29 07:10:31;;;;;;;31.92;19.70;;;;;;;5.46;47.93;102634.50;7389028;19;20018;-74
2023/01/29 07:13:00;;;;;;;33.03;18.63;;;;;;;5.51;47.86;102627.22;7390048;19;19995;-75
2023/01/29 07:15:26;;;;;;;32.28;19.77;;;;;;;5.52;47.92;102636.97;7391108;19;20030;-75
2023/01/29 07:18:00;;;;;;;33.67;19.35;;;;;;;5.48;47.85;102633.16;7388337;19;20032;-76
2023/01/29 07:20:27;;;;;;;;;;;;;;;5.45;48.45;102639.06;7389787;19;20027;-77
2023/01/29 07:22:53;;;;;;;38.22;21.23;;;;;;;5.41;47.94;102629.84;7389902;19;19950;-72
2023/01/29 07:25:20;;;;;;;36.08;21.48;;;;;;;5.38;48.27;102636.59;7389228;19;19999;-71
2023/01/29 07:27:47;;;;;;;37.40;21.30;;;;;;;5.45;47.96;102633.66;7387132;19;20026;-70
2023/01/29 07:30:13;;;;;;;35.28;20.88;;;;;;;5.29;48.08;102635.44;7389039;19;20058;-74
2023/01/29 07:32:40;;;;;;;35.33;20.67;;;;;;;5.19;48.45;102638.88;7388042;19;20010;-72
2023/01/29 07:35:06;;;;;;;35.70;20.45;;;;;;;5.34;47.76;102621.13;7390611;19;20017;-73
2023/01/29 07:37:32;;;;;;;40.10;21.63;;;;;;;5.35;47.88;102625.47;7389663;19;19999;-72
2023/01/29 07:39:58;;;;;;;35.70;22.05;;;;;;;5.45;47.68;102633.66;7390555;19;19995;-71
2023/01/29 07:42:24;;;;;;;38.40;22.25;;;;;;;5.42;47.83;102630.66;7389847;19;20498;-71
2023/01/29 07:44:49;;;;;;;34.85;20.77;;;;;;;5.40;47.85;102628.22;7389583;19;20010;-74
2023/01/29 07:47:15;;;;;;;37.95;21.05;;;;;;;5.46;47.78;102629.88;7388521;19;20033;-73
2023/01/29 07:49:41;;;;;;;37.05;22.50;;;;;;;5.44;47.94;102618.50;7391062;19;20003;-77
2023/01/29 07:52:07;;;;;;;40.15;22.77;;;;;;;5.37;47.84;102604.34;7395853;19;20463;-74
2023/01/29 07:54:32;;;;;;;40.03;22.10;;;;;;;5.44;47.76;102606.84;7393528;19;20037;-76
2023/01/29 07:56:58;;;;;;;41.40;23.52;;;;;;;5.28;48.08;102611.31;7396782;19;20473;-77
2023/01/29 07:59:24;;;;;;;39.60;22.15;;;;;;;5.38;48.06;102614.94;7396862;19;19998;-81
2023/01/29 08:01:50;;;;;;;37.55;23.20;;;;;;;5.42;48.00;102601.69;7397457;19;20003;-74
2023/01/29 08:04:16;;;;;;;40.60;23.30;;;;;;;5.48;47.74;102616.91;7393826;19;20001;-76
2023/01/29 08:06:41;;;;;;;36.22;21.90;;;;;;;5.55;47.72;102612.03;7396776;19;20036;-74
2023/01/29 08:09:07;;;;;;;38.25;23.08;;;;;;;5.47;47.75;102620.66;7396481;19;19999;-72
2023/01/29 08:11:33;;;;;;;39.70;22.63;;;;;;;5.56;47.58;102627.22;7397674;19;19995;-70
2023/01/29 08:13:59;;;;;;;37.60;22.60;;;;;;;5.46;47.65;102613.63;7394299;19;20005;-72
2023/01/29 08:16:25;;;;;;;37.15;22.15;;;;;;;5.50;47.48;102614.72;7396733;19;20418;-71
2023/01/29 08:18:51;;;;;;;38.88;21.50;;;;;;;5.52;47.54;102609.06;7395613;19;20002;-71
2023/01/29 08:21:16;;;;;;;33.85;20.92;;;;;;;5.41;47.72;102599.22;7394317;19;20341;-69
2023/01/29 08:23:42;;;;;;;37.50;21.73;;;;;;;5.56;47.40;102596.63;7394624;19;20030;-70
2023/01/29 08:26:08;;;;;;;33.08;20.38;;;;;;;5.66;47.33;102595.84;7396001;19;20368;-70
2023/01/29 08:28:37;;;;;;;33.20;19.65;;;;;;;5.61;47.26;102590.41;7393736;19;20070;-70
2023/01/29 08:31:03;;;;;;;33.17;20.40;;;;;;;5.67;47.18;102594.78;7396258;19;19999;-67
2023/01/29 08:33:29;;;;;;;32.95;19.15;;;;;;;5.59;47.43;102589.84;7394790;19;20006;-69
2023/01/29 08:35:55;;;;;;;31.05;18.90;;;;;;;5.56;47.41;102592.03;7395261;19;20795;-69
2023/01/29 08:38:21;;;;;;;33.13;19.42;;;;;;;5.59;47.46;102606.09;7393379;19;19998;-68
2023/01/29 08:40:46;;;;;;;33.55;19.63;;;;;;;5.68;47.21;102596.41;7395417;19;20352;-66
2023/01/29 08:43:12;;;;;;;32.40;18.80;;;;;;;5.81;46.80;102609.47;7394372;19;19999;-67
2023/01/29 08:45:42;;;;;;;31.33;18.50;;;;;;;5.80;46.82;102615.16;7393690;19;20022;-69
2023/01/29 08:48:09;;;;;;;32.22;17.58;;;;;;;5.75;47.05;102610.53;7393019;19;20030;-70
2023/01/29 08:50:35;;;;;;;32.75;19.20;;;;;;;5.71;47.00;102612.16;7395797;19;19999;-69
2023/01/29 08:53:03;;;;;;;30.63;18.83;;;;;;;5.79;46.86;102600.78;7392784;19;20369;-69
2023/01/29 08:55:29;;;;;;;32.20;19.23;;;;;;;5.80;46.56;102599.72;7395561;19;19995;-71
2023/01/29 08:57:56;;;;;;;32.92;19.45;;;;;;;5.87;46.43;102594.03;7394391;19;20001;-72
2023/01/29 09:00:22;;;;;;;28.75;17.73;;;;;;;5.81;46.54;102587.81;7393108;19;20021;-70
2023/01/29 09:02:48;;;;;;;29.70;17.58;;;;;;;5.86;46.37;102584.28;7392520;19;20074;-70
2023/01/29 09:05:14;;;;;;;31.45;18.23;;;;;;;5.81;46.52;102573.41;7394741;19;20015;-72
2023/01/29 09:07:40;;;;;;;31.05;17.83;;;;;;;5.94;46.16;102572.91;7393194;19;19994;-69
2023/01/29 09:10:07;;;;;;;32.97;18.38;;;;;;;5.94;45.85;102560.22;7394856;19;20082;-68
2023/01/29 09:12:33;;;;;;;27.98;16.73;;;;;;;5.96;45.97;102567.25;7394616;19;20021;-70
2023/01/29 09:14:59;;;;;;;29.73;17.58;;;;;;;6.01;45.65;102565.38;7393210;19;20374;-73
2023/01/29 09:17:24;;;;;;;28.83;16.92;;;;;;;5.97;45.90;102555.31;7396159;19;20002;-72
2023/01/29 09:19:51;;;;;;;30.33;17.08;;;;;;;5.98;45.68;102543.41;7399318;19;20062;-71
2023/01/29 09:22:18;;;;;;;29.90;16.77;;;;;;;5.93;45.71;102545.00;7394595;19;20005;-70
2023/01/29 09:24:44;;;;;;;27.33;16.40;;;;;;;5.69;45.90;102541.97;7392299;19;20006;-72
2023/01/29 09:27:10;;;;;;;29.38;17.65;;;;;;;5.76;45.82;102552.56;7393209;19;20347;-70
2023/01/29 09:29:36;;;;;;;29.95;17.52;;;;;;;5.65;46.11;102561.72;7395263;19;19991;-71
2023/01/29 09:32:05;;;;;;;30.10;16.88;;;;;;;5.77;45.86;102548.75;7392758;19;20018;-72
2023/01/29 09:34:31;;;;;;;27.00;15.98;;;;;;;5.56;46.23;102548.69;7391434;19;20015;-73
2023/01/29 09:37:03;;;;;;;27.67;15.82;;;;;;;5.90;45.45;102542.84;7393396;19;20151;-72
2023/01/29 09:39:29;;;;;;;26.58;15.70;;;;;;;5.98;45.25;102543.41;7395398;19;20014;-68
2023/01/29 09:42:02;;;;;;;28.23;16.27;;;;;;;6.03;44.99;102540.72;7394736;19;20028;-68
2023/01/29 09:45:00;;;;;;;28.90;16.05;;;;;;;6.07;44.72;102544.50;7391550;19;19994;-75
2023/01/29 09:47:27;;;;;;;31.00;16.58;;;;;;;5.86;45.39;102544.47;7391272;19;20102;-72
2023/01/29 09:50:00;;;;;;;25.75;15.45;;;;;;;5.95;44.99;102544.75;7394160;19;20006;-72
2023/01/29 09:52:28;;;;;;;27.73;16.77;;;;;;;6.02;44.90;102539.06;7393522;19;20002;-72
2023/01/29 09:55:10;;;;;;;26.88;15.43;;;;;;;6.01;44.76;102545.56;7392892;19;20259;-72
2023/01/29 09:57:44;;;;;;;26.20;15.82;;;;;;;6.04;44.87;102526.91;7393101;19;20022;-72
2023/01/29 10:00:17;;;;;;;;;;;;;;;6.12;44.42;102539.09;7394057;19;20025;-72
2023/01/29 10:02:52;;;;;;;26.25;15.55;;;;;;;6.22;44.62;102539.09;7392307;19;19942;-73
2023/01/29 10:05:30;;;;;;;27.08;16.67;;;;;;;6.28;44.40;102520.97;7392301;19;20616;-78
2023/01/29 10:08:08;;;;;;;27.05;15.52;;;;;;;6.25;44.48;102519.59;7388765;19;20471;-77
2023/01/29 10:10:52;;;;;;;26.65;15.38;;;;;;;6.08;44.50;102517.13;7390828;19;20031;-67
2023/01/29 10:13:44;;;;;;;25.08;15.30;;;;;;;6.25;44.55;102524.22;7391847;19;20003;-68
2023/01/29 10:16:20;;;;;;;26.13;15.60;;;;;;;6.23;44.50;102510.13;7392230;19;20374;-72
2023/01/29 10:19:12;;;;;;;25.48;14.82;;;;;;;6.35;44.23;102507.13;7392348;19;20019;-73
2023/01/29 10:21:51;;;;;;;28.45;15.30;;;;;;;6.16;44.62;102501.41;7390425;19;20007;-73
2023/01/29 10:24:20;;;;;;;25.40;15.13;;;;;;;6.23;44.57;102496.56;7391138;19;20118;-73
2023/01/29 10:26:46;;;;;;;24.80;14.90;;;;;;;6.34;44.33;102494.66;7389192;19;20471;-73
2023/01/29 10:29:17;;;;;;;25.33;14.65;;;;;;;6.30;44.38;102495.19;7391993;19;20006;-73
2023/01/29 10:31:46;;;;;;;25.42;15.32;;;;;;;6.20;44.61;102503.31;7392248;19;20062;-73
2023/01/29 10:34:29;;;;;;;25.63;15.05;;;;;;;6.37;44.34;102499.53;7388637;19;20466;-73
2023/01/29 10:36:57;;;;;;;26.13;15.23;;;;;;;6.30;44.50;102503.31;7391072;19;19998;-72
2023/01/29 10:39:25;;;;;;;25.52;15.20;;;;;;;6.19;44.70;102498.97;7391858;19;20011;-74
2023/01/29 10:42:18;;;;;;;24.08;15.40;;;;;;;6.39;44.24;102500.06;7390044;19;19999;-74
2023/01/29 10:45:07;;;;;;;25.90;15.13;;;;;;;6.47;43.94;102491.41;7392297;19;20009;-74
2023/01/29 10:47:54;;;;;;;23.50;14.60;;;;;;;6.54;43.85;102485.69;7388193;19;20336;-74
2023/01/29 10:50:20;;;;;;;27.40;15.73;;;;;;;6.35;44.37;102485.44;7391792;19;20352;-74
2023/01/29 10:53:14;;;;;;;24.58;14.98;;;;;;;6.41;44.25;102481.63;7389250;19;19998;-74
2023/01/29 10:55:42;;;;;;;25.50;14.38;;;;;;;6.50;43.98;102475.38;7391495;19;20012;-76
2023/01/29 10:58:20;;;;;;;23.98;14.55;;;;;;;6.22;44.60;102474.03;7391030;19;19999;-79
2023/01/29 11:00:46;;;;;;;27.05;14.95;;;;;;;6.15;44.76;102467.25;7391535;19;20016;-75
2023/01/29 11:03:12;;;;;;;25.63;15.25;;;;;;;6.15;44.76;102462.66;7390439;19;20003;-75
2023/01/29 11:05:47;;;;;;;25.08;14.95;;;;;;;6.35;44.49;102461.84;7391276;19;20001;-75
2023/01/29 11:08:18;;;;;;;25.67;14.73;;;;;;;6.51;44.13;102443.66;7389747;19;20336;-74
2023/01/29 11:10:57;;;;;;;24.05;14.73;;;;;;;6.58;44.06;102448.81;7391551;19;20001;-76
2023/01/29 11:13:28;;;;;;;23.80;14.68;;;;;;;6.59;43.98;102445.00;7390077;19;20006;-76
2023/01/29 11:15:54;;;;;;;24.92;15.02;;;;;;;6.54;44.03;102437.66;7389129;19;20078;-77
2023/01/29 11:18:20;;;;;;;23.45;14.73;;;;;;;6.59;43.82;102432.22;7389314;19;19999;-77
2023/01/29 11:20:59;;;;;;;23.98;14.30;;;;;;;6.50;44.02;102436.59;7391048;19;20003;-79
2023/01/29 11:23:30;;;;;;;25.17;15.10;;;;;;;6.60;44.04;102431.16;7390406;19;20018;-74
2023/01/29 11:25:57;;;;;;;27.23;14.90;;;;;;;6.28;44.57;102429.56;7396292;19;19998;-72
2023/01/29 11:28:45;;;;;;;26.02;15.55;;;;;;;6.37;44.10;102427.13;7393575;19;19994;-73
2023/01/29 11:31:18;;;;;;;27.52;16.75;;;;;;;6.39;44.30;102429.56;7398382;19;20011;-72
2023/01/29 11:33:45;;;;;;;25.23;15.43;;;;;;;6.60;43.96;102416.78;7390687;19;20018;-67
2023/01/29 11:36:33;;;;;;;25.42;15.95;;;;;;;6.71;43.60;102409.41;7397438;19;20009;-66
2023/01/29 11:39:20;;;;;;;26.70;15.20;;;;;;;6.59;43.73;102407.00;7396195;19;20327;-67
2023/01/29 11:41:57;;;;;;;27.52;15.68;;;;;;;6.71;43.70;102404.00;7397854;19;20032;-67
2023/01/29 11:44:27;;;;;;;28.83;15.68;;;;;;;6.67;43.86;102399.09;7393422;19;20475;-65
2023/01/29 11:46:55;;;;;;;26.42;15.68;;;;;;;6.70;43.71;102386.09;7397196;19;20410;-66
2023/01/29 11:49:30;;;;;;;26.00;15.45;;;;;;;6.74;43.85;102385.25;7396950;19;20023;-66
2023/01/29 11:52:00;;;;;;;28.38;16.00;;;;;;;6.83;43.60;102377.38;7397329;19;20070;-68
2023/01/29 11:54:32;;;;;;;27.42;15.57;;;;;;;6.77;43.58;102376.56;7395509;19;20017;-68
2023/01/29 11:56:59;;;;;;;26.50;15.65;;;;;;;6.61;43.93;102373.09;7397083;19;19998;-65
2023/01/29 11:59:33;;;;;;;25.83;15.70;;;;;;;6.60;44.17;102363.31;7396845;19;20006;-67
2023/01/29 12:02:11;;;;;;;;;;;;;;;6.51;44.15;102359.56;7395432;19;20018;-68
2023/01/29 12:04:38;;;;;;;26.17;15.57;;;;;;;6.74;43.94;102365.44;7394700;19;19974;-66